Time;durP1;ratioP1;P1;durP2;ratioP2;P2;SDS_P1;SDS_P2;PMS_P1;PMS_P2;Temp;Humidity;BMP_temperature;BMP_pressure;BME280_temperature;BME280_humidity;BME280_pressure;Samples;Min_cycle;Max_cycle;Signal;HPM_P1;HPM_P2
2022/08/03 00:02:24;;;;;;;1.75;0.90;;;;;;;;;;4984765;28;20043;-84
2022/08/03 00:04:50;;;;;;;0.88;0.85;;;;;;;;;;4985209;28;20042;-84
2022/08/03 00:07:16;;;;;;;2.53;1.10;;;;;;;;;;4986186;28;20042;-84
2022/08/03 00:09:41;;;;;;;2.38;1.00;;;;;;;;;;4984350;28;20049;-84
2022/08/03 00:12:07;;;;;;;1.63;1.10;;;;;;;;;;4985378;28;20089;-84
2022/08/03 00:14:33;;;;;;;2.22;1.00;;;;;;;;;;4985526;28;20065;-84
2022/08/03 00:16:58;;;;;;;1.73;1.20;;;;;;;;;;4985527;28;20099;-84
2022/08/03 00:19:24;;;;;;;1.00;0.90;;;;;;;;;;4985631;28;20039;-83
2022/08/03 00:21:49;;;;;;;1.70;1.00;;;;;;;;;;4969482;28;20519;-84
2022/08/03 00:24:15;;;;;;;1.05;0.98;;;;;;;;;;4985536;28;20054;-84
2022/08/03 00:26:40;;;;;;;2.70;0.95;;;;;;;;;;4986214;28;20042;-84
2022/08/03 00:29:06;;;;;;;1.10;0.90;;;;;;;;;;4984360;28;20030;-84
2022/08/03 00:31:32;;;;;;;1.90;0.90;;;;;;;;;;4984769;28;20066;-84
2022/08/03 00:33:57;;;;;;;1.20;1.00;;;;;;;;;;4984935;28;20046;-82
2022/08/03 00:36:23;;;;;;;1.23;0.90;;;;;;;;;;4985382;28;20042;-84
2022/08/03 00:38:48;;;;;;;2.63;1.02;;;;;;;;;;4984281;28;20077;-83
2022/08/03 00:41:14;;;;;;;4.65;0.90;;;;;;;;;;4985680;28;20023;-84
2022/08/03 00:43:40;;;;;;;1.55;1.10;;;;;;;;;;4986249;28;20407;-84
2022/08/03 00:46:05;;;;;;;2.00;0.93;;;;;;;;;;4984886;28;20081;-84
2022/08/03 00:48:31;;;;;;;1.38;0.90;;;;;;;;;;4968087;28;20042;-84
2022/08/03 00:50:57;;;;;;;1.08;0.90;;;;;;;;;;4984985;28;20033;-84
2022/08/03 00:53:23;;;;;;;1.73;1.00;;;;;;;;;;4985831;28;20474;-84
2022/08/03 00:55:48;;;;;;;1.17;1.00;;;;;;;;;;4984791;28;20038;-84
2022/08/03 00:58:14;;;;;;;2.85;1.00;;;;;;;;;;4989104;28;20051;-84
2022/08/03 01:00:40;;;;;;;2.42;1.08;;;;;;;;;;4988257;28;20046;-84
2022/08/03 01:03:07;;;;;;;1.38;0.93;;;;;;;;;;4988667;28;20034;-84
2022/08/03 01:05:54;;;;;;;2.38;1.30;;;;;;;;;;4988338;28;20045;-84
2022/08/03 01:08:39;;;;;;;1.38;0.90;;;;;;;;;;4988547;28;20087;-84
2022/08/03 01:11:22;;;;;;;1.95;1.10;;;;;;;;;;4988120;28;20039;-84
2022/08/03 01:14:05;;;;;;;1.03;0.90;;;;;;;;;;4988435;28;20027;-84
2022/08/03 01:16:36;;;;;;;2.92;1.17;;;;;;;;;;4989203;28;20043;-84
2022/08/03 01:19:35;;;;;;;1.52;1.13;;;;;;;;;;4988715;28;20046;-84
2022/08/03 01:22:28;;;;;;;1.67;0.95;;;;;;;;;;4971807;28;20511;-84
2022/08/03 01:25:09;;;;;;;1.48;1.05;;;;;;;;;;4987250;28;20066;-84
2022/08/03 01:28:14;;;;;;;1.52;1.00;;;;;;;;;;4988143;28;20035;-84
2022/08/03 01:30:44;;;;;;;2.63;1.00;;;;;;;;;;4988326;28;20035;-84
2022/08/03 01:33:17;;;;;;;1.95;1.10;;;;;;;;;;4988290;28;20089;-84
2022/08/03 01:36:03;;;;;;;1.25;1.08;;;;;;;;;;4971331;28;20039;-84
2022/08/03 01:38:33;;;;;;;2.22;1.08;;;;;;;;;;4986621;28;20041;-85
2022/08/03 01:41:07;;;;;;;1.40;1.10;;;;;;;;;;4987768;28;20042;-85
2022/08/03 01:43:35;;;;;;;1.20;1.10;;;;;;;;;;4987993;28;20561;-84
2022/08/03 01:46:03;;;;;;;2.13;1.00;;;;;;;;;;4986518;28;20132;-84
2022/08/03 01:48:30;;;;;;;2.95;1.17;;;;;;;;;;4987125;28;20031;-84
2022/08/03 01:50:58;;;;;;;1.83;1.00;;;;;;;;;;4971209;28;20066;-84
2022/08/03 01:53:24;;;;;;;0.93;0.82;;;;;;;;;;4987981;28;20142;-84
2022/08/03 01:55:54;;;;;;;2.83;1.10;;;;;;;;;;4970808;28;20078;-84
2022/08/03 01:58:22;;;;;;;1.58;1.20;;;;;;;;;;4988381;28;20034;-85
2022/08/03 02:00:50;;;;;;;2.88;1.20;;;;;;;;;;4988178;28;20050;-84
2022/08/03 02:03:16;;;;;;;1.35;1.17;;;;;;;;;;4970166;28;20031;-84
2022/08/03 02:05:45;;;;;;;2.15;1.15;;;;;;;;;;4986691;28;20031;-84
2022/08/03 02:08:12;;;;;;;2.47;1.20;;;;;;;;;;4986529;28;20500;-84
2022/08/03 02:10:40;;;;;;;1.83;1.15;;;;;;;;;;4985380;28;20039;-84
2022/08/03 02:13:08;;;;;;;1.00;0.90;;;;;;;;;;4985881;28;20039;-83
2022/08/03 02:15:36;;;;;;;2.42;1.10;;;;;;;;;;4969793;28;20065;-84
2022/08/03 02:18:04;;;;;;;1.65;1.15;;;;;;;;;;4987795;28;20042;-84
2022/08/03 02:20:32;;;;;;;1.20;1.00;;;;;;;;;;4987572;28;20035;-83
2022/08/03 02:22:58;;;;;;;1.75;1.20;;;;;;;;;;4987337;28;20039;-84
2022/08/03 02:25:23;;;;;;;2.55;1.10;;;;;;;;;;4987717;28;20043;-84
2022/08/03 02:27:54;;;;;;;2.08;1.00;;;;;;;;;;4987656;28;20081;-84
2022/08/03 02:30:22;;;;;;;1.20;1.00;;;;;;;;;;4978280;28;20042;-84
2022/08/03 02:32:53;;;;;;;1.25;1.10;;;;;;;;;;4978033;28;20079;-84
2022/08/03 02:35:21;;;;;;;3.05;1.15;;;;;;;;;;4976118;28;20507;-85
2022/08/03 02:37:51;;;;;;;2.13;1.20;;;;;;;;;;4960402;28;20038;-84
2022/08/03 02:40:19;;;;;;;1.13;1.00;;;;;;;;;;4960350;28;20031;-84
2022/08/03 02:42:48;;;;;;;1.10;0.90;;;;;;;;;;4977687;28;20045;-85
2022/08/03 02:45:17;;;;;;;1.88;1.20;;;;;;;;;;4974873;28;20078;-84
2022/08/03 02:47:44;;;;;;;1.77;0.93;;;;;;;;;;4977278;28;20030;-84
2022/08/03 02:50:11;;;;;;;2.50;1.17;;;;;;;;;;4977309;28;20036;-85
2022/08/03 02:52:38;;;;;;;3.53;1.10;;;;;;;;;;4977136;28;20039;-84
2022/08/03 02:55:06;;;;;;;1.85;1.20;;;;;;;;;;4976908;28;20046;-85
2022/08/03 02:57:34;;;;;;;2.05;1.38;;;;;;;;;;4977331;28;20077;-84
2022/08/03 03:00:01;;;;;;;3.08;1.30;;;;;;;;;;4977165;28;20035;-84
2022/08/03 03:02:27;;;;;;;1.50;1.05;;;;;;;;;;4977355;28;20027;-85
2022/08/03 03:04:54;;;;;;;3.95;1.10;;;;;;;;;;4976807;28;20415;-85
2022/08/03 03:07:21;;;;;;;1.73;1.10;;;;;;;;;;4977200;28;20077;-84
2022/08/03 03:09:47;;;;;;;1.77;1.15;;;;;;;;;;4975835;28;20118;-84
2022/08/03 03:12:13;;;;;;;1.98;1.13;;;;;;;;;;4979262;28;20058;-84
2022/08/03 03:14:38;;;;;;;0.90;0.90;;;;;;;;;;4978147;28;20432;-84
2022/08/03 03:17:09;;;;;;;1.98;1.10;;;;;;;;;;4981145;28;20039;-85
2022/08/03 03:19:37;;;;;;;1.38;1.10;;;;;;;;;;4994248;28;20050;-85
2022/08/03 03:22:05;;;;;;;1.05;1.00;;;;;;;;;;4987785;28;20058;-85
2022/08/03 03:24:31;;;;;;;2.25;1.30;;;;;;;;;;4989582;28;20014;-84
2022/08/03 03:26:57;;;;;;;2.85;1.00;;;;;;;;;;4987066;28;20477;-85
2022/08/03 03:29:23;;;;;;;1.23;1.00;;;;;;;;;;4976833;28;20037;-85
2022/08/03 03:31:49;;;;;;;1.90;1.20;;;;;;;;;;4977266;28;20404;-84
2022/08/03 03:34:15;;;;;;;2.42;1.10;;;;;;;;;;4974864;28;20039;-85
2022/08/03 03:36:41;;;;;;;1.40;1.10;;;;;;;;;;4976567;28;20030;-85
2022/08/03 03:39:06;;;;;;;1.10;1.00;;;;;;;;;;4975338;28;20101;-84
2022/08/03 03:41:33;;;;;;;1.40;1.10;;;;;;;;;;4975298;28;20062;-84
2022/08/03 03:43:59;;;;;;;1.60;1.00;;;;;;;;;;4975409;28;20050;-84
2022/08/03 03:46:25;;;;;;;1.35;1.00;;;;;;;;;;4976467;28;20026;-84
2022/08/03 03:48:50;;;;;;;1.23;1.02;;;;;;;;;;4976406;28;20035;-84
2022/08/03 03:51:16;;;;;;;1.90;1.02;;;;;;;;;;4976347;28;20039;-85
2022/08/03 03:53:58;;;;;;;2.10;1.33;;;;;;;;;;4976662;28;20105;-85
2022/08/03 03:56:24;;;;;;;2.30;1.20;;;;;;;;;;4959364;28;20057;-84
2022/08/03 03:58:50;;;;;;;1.88;1.23;;;;;;;;;;4976432;28;20034;-84
2022/08/03 04:01:16;;;;;;;1.95;1.20;;;;;;;;;;4976597;28;20543;-84
2022/08/03 04:03:41;;;;;;;1.30;0.98;;;;;;;;;;4975584;28;20039;-84
2022/08/03 04:11:53;;;;;;;1.38;1.00;;;;;;;;;;4982711;28;20050;-84
2022/08/03 04:14:36;;;;;;;5.32;1.20;;;;;;;;;;4975758;28;20092;-84
2022/08/03 04:17:04;;;;;;;2.85;1.20;;;;;;;;;;4975022;28;20070;-84
2022/08/03 04:19:37;;;;;;;2.38;1.27;;;;;;;;;;4975202;28;20064;-85
2022/08/03 04:22:06;;;;;;;3.30;1.33;;;;;;;;;;4975011;28;20557;-84
2022/08/03 04:24:41;;;;;;;3.85;1.17;;;;;;;;;;4973811;28;20070;-84
2022/08/03 04:27:10;;;;;;;1.48;1.20;;;;;;;;;;4975391;28;20042;-85
2022/08/03 04:29:40;;;;;;;1.58;1.10;;;;;;;;;;4974763;28;20088;-84
2022/08/03 04:32:07;;;;;;;2.92;1.27;;;;;;;;;;4977866;28;20058;-84
2022/08/03 04:34:34;;;;;;;1.88;1.20;;;;;;;;;;4962439;28;20194;-84
2022/08/03 04:37:04;;;;;;;2.42;1.10;;;;;;;;;;4978751;28;20129;-85
2022/08/03 04:39:30;;;;;;;1.70;1.20;;;;;;;;;;4979825;28;20042;-84
2022/08/03 04:42:00;;;;;;;1.70;1.17;;;;;;;;;;4979860;28;20041;-84
2022/08/03 04:44:28;;;;;;;3.97;1.02;;;;;;;;;;4977695;28;20515;-84
2022/08/03 04:46:55;;;;;;;2.72;1.23;;;;;;;;;;4978104;28;20432;-85
2022/08/03 04:49:21;;;;;;;3.78;1.27;;;;;;;;;;4979009;28;20034;-84
2022/08/03 04:51:48;;;;;;;3.45;1.20;;;;;;;;;;4978041;28;20384;-84
2022/08/03 04:54:15;;;;;;;2.17;1.20;;;;;;;;;;4977432;28;20038;-84
2022/08/03 04:56:41;;;;;;;2.20;1.20;;;;;;;;;;4979881;28;20039;-84
2022/08/03 04:59:07;;;;;;;3.80;1.50;;;;;;;;;;4978385;28;20039;-84
2022/08/03 05:01:33;;;;;;;2.25;1.27;;;;;;;;;;4979412;28;20467;-84
2022/08/03 05:03:59;;;;;;;2.53;1.20;;;;;;;;;;4979362;28;20113;-84
2022/08/03 05:06:25;;;;;;;2.13;1.27;;;;;;;;;;4978534;28;20455;-84
2022/08/03 05:08:50;;;;;;;1.80;1.17;;;;;;;;;;4976335;28;20034;-84
2022/08/03 05:11:16;;;;;;;2.60;1.17;;;;;;;;;;4962151;28;20027;-84
2022/08/03 05:13:43;;;;;;;1.90;1.10;;;;;;;;;;4978159;28;20480;-85
2022/08/03 05:16:08;;;;;;;1.70;1.20;;;;;;;;;;4979293;28;20050;-84
2022/08/03 05:18:34;;;;;;;2.58;1.20;;;;;;;;;;4979405;28;20035;-84
2022/08/03 05:21:00;;;;;;;1.70;1.27;;;;;;;;;;4979379;28;20035;-84
2022/08/03 05:23:26;;;;;;;2.78;1.98;;;;;;;;;;4978693;28;20043;-84
2022/08/03 05:25:51;;;;;;;2.72;1.40;;;;;;;;;;4978789;28;20113;-85
2022/08/03 05:28:17;;;;;;;2.88;1.30;;;;;;;;;;4979084;28;20476;-84
2022/08/03 05:30:43;;;;;;;2.63;1.30;;;;;;;;;;4961944;28;20161;-85
2022/08/03 05:33:09;;;;;;;3.88;1.40;;;;;;;;;;4961845;28;20035;-84
2022/08/03 05:35:37;;;;;;;1.55;1.30;;;;;;;;;;4978416;28;20038;-84
2022/08/03 05:38:03;;;;;;;4.45;1.27;;;;;;;;;;4979056;28;20399;-84
2022/08/03 05:40:29;;;;;;;2.50;1.08;;;;;;;;;;4961222;28;20109;-85
2022/08/03 05:42:54;;;;;;;1.45;1.08;;;;;;;;;;4978811;28;20435;-84
2022/08/03 05:45:20;;;;;;;1.30;1.20;;;;;;;;;;4978304;28;20077;-84
2022/08/03 05:47:46;;;;;;;2.60;1.30;;;;;;;;;;4977462;28;20039;-85
2022/08/03 05:50:13;;;;;;;1.50;1.10;;;;;;;;;;4977985;28;20035;-84
2022/08/03 05:52:39;;;;;;;1.25;1.15;;;;;;;;;;4977393;28;20007;-84
2022/08/03 05:55:06;;;;;;;2.45;1.10;;;;;;;;;;4977991;28;20042;-85
2022/08/03 05:57:32;;;;;;;2.50;1.00;;;;;;;;;;4978168;28;20030;-85
2022/08/03 05:59:58;;;;;;;2.03;1.10;;;;;;;;;;4977517;28;20049;-85
2022/08/03 06:02:24;;;;;;;3.67;1.20;;;;;;;;;;4978731;28;20137;-85
2022/08/03 06:04:50;;;;;;;3.22;1.20;;;;;;;;;;4980814;28;20033;-86
2022/08/03 06:07:15;;;;;;;1.73;1.10;;;;;;;;;;4978387;28;20031;-86
2022/08/03 06:09:41;;;;;;;3.53;1.10;;;;;;;;;;4959915;28;20451;-86
2022/08/03 06:12:06;;;;;;;2.45;1.30;;;;;;;;;;4978875;28;20190;-86
2022/08/03 06:14:32;;;;;;;4.50;1.10;;;;;;;;;;4977524;28;20439;-87
2022/08/03 06:16:57;;;;;;;2.75;1.23;;;;;;;;;;4978359;28;20066;-84
2022/08/03 06:19:26;;;;;;;2.65;1.10;;;;;;;;;;4977587;28;20086;-86
2022/08/03 06:21:51;;;;;;;1.42;1.17;;;;;;;;;;4977391;28;20035;-85
2022/08/03 06:24:17;;;;;;;1.55;1.05;;;;;;;;;;4977843;28;20110;-85
2022/08/03 06:26:43;;;;;;;1.60;1.20;;;;;;;;;;4977183;28;20038;-85
2022/08/03 06:29:08;;;;;;;2.22;1.20;;;;;;;;;;4978873;28;20034;-86
2022/08/03 06:31:33;;;;;;;1.75;1.17;;;;;;;;;;4978513;28;20042;-85
2022/08/03 06:34:00;;;;;;;2.75;1.00;;;;;;;;;;4960082;28;20069;-86
2022/08/03 06:36:30;;;;;;;2.13;1.02;;;;;;;;;;4977394;28;20043;-86
2022/08/03 06:38:57;;;;;;;2.83;1.13;;;;;;;;;;4978818;28;20038;-86
2022/08/03 06:41:23;;;;;;;3.00;1.10;;;;;;;;;;4978240;28;20038;-86
2022/08/03 06:43:48;;;;;;;2.90;1.42;;;;;;;;;;4978126;28;20039;-86
2022/08/03 06:46:15;;;;;;;2.70;1.23;;;;;;;;;;4978009;28;20042;-86
2022/08/03 06:48:41;;;;;;;1.77;1.00;;;;;;;;;;4978350;28;20091;-86
2022/08/03 06:51:06;;;;;;;1.42;0.90;;;;;;;;;;4978176;28;20066;-87
2022/08/03 06:53:32;;;;;;;2.17;1.10;;;;;;;;;;4978389;28;20078;-86
2022/08/03 06:55:57;;;;;;;2.40;1.20;;;;;;;;;;4979007;28;20514;-87
2022/08/03 06:58:23;;;;;;;1.42;1.10;;;;;;;;;;4978358;28;20045;-87
2022/08/03 07:00:49;;;;;;;1.10;1.00;;;;;;;;;;4979152;28;20455;-87
2022/08/03 07:03:14;;;;;;;1.45;1.05;;;;;;;;;;4978559;28;20035;-87
2022/08/03 07:05:41;;;;;;;1.20;1.10;;;;;;;;;;4978488;28;20451;-86
2022/08/03 07:08:07;;;;;;;3.28;0.98;;;;;;;;;;4977399;28;20070;-87
2022/08/03 07:10:32;;;;;;;2.13;1.10;;;;;;;;;;4978042;28;20089;-86
2022/08/03 07:12:57;;;;;;;3.28;1.00;;;;;;;;;;4979045;28;20034;-86
2022/08/03 07:15:24;;;;;;;2.90;1.13;;;;;;;;;;4960464;28;20463;-87
2022/08/03 07:17:49;;;;;;;2.08;1.10;;;;;;;;;;4977893;28;20066;-86
2022/08/03 07:20:17;;;;;;;2.83;1.55;;;;;;;;;;4979631;28;20035;-87
2022/08/03 07:22:43;;;;;;;1.90;1.20;;;;;;;;;;4978330;28;20034;-87
2022/08/03 07:25:09;;;;;;;5.53;1.13;;;;;;;;;;4976825;28;20035;-86
2022/08/03 07:27:35;;;;;;;6.90;1.20;;;;;;;;;;4978187;28;20043;-86
2022/08/03 07:30:00;;;;;;;2.22;1.13;;;;;;;;;;4978275;28;20089;-86
2022/08/03 07:32:27;;;;;;;1.73;1.10;;;;;;;;;;4977075;28;20031;-87
2022/08/03 07:34:52;;;;;;;4.32;1.10;;;;;;;;;;4978453;28;20074;-87
2022/08/03 07:37:18;;;;;;;1.48;1.05;;;;;;;;;;4961136;28;20026;-87
2022/08/03 07:39:44;;;;;;;3.22;1.20;;;;;;;;;;4978923;28;20031;-87
2022/08/03 07:42:09;;;;;;;1.48;1.02;;;;;;;;;;4978672;28;20038;-88
2022/08/03 07:44:35;;;;;;;1.50;1.05;;;;;;;;;;4978474;28;20041;-87
2022/08/03 07:47:00;;;;;;;1.65;1.15;;;;;;;;;;4977107;28;20404;-88
2022/08/03 07:49:25;;;;;;;1.52;1.00;;;;;;;;;;4977916;28;20507;-86
2022/08/03 07:54:35;;;;;;;1.10;1.00;;;;;;;;;;4978047;28;20487;-88
2022/08/03 07:57:00;;;;;;;2.03;1.25;;;;;;;;;;4978846;28;20038;-87
2022/08/03 07:59:26;;;;;;;2.95;1.20;;;;;;;;;;4961097;28;20039;-87
2022/08/03 08:01:52;;;;;;;1.10;1.00;;;;;;;;;;4978651;28;20412;-87
2022/08/03 08:04:18;;;;;;;1.48;1.10;;;;;;;;;;4977259;28;20260;-87
2022/08/03 08:06:43;;;;;;;1.17;1.02;;;;;;;;;;4979022;28;20526;-87
2022/08/03 08:09:10;;;;;;;1.80;1.08;;;;;;;;;;4976213;28;20491;-87
2022/08/03 08:11:36;;;;;;;2.65;1.00;;;;;;;;;;4979860;28;20088;-87
2022/08/03 08:14:03;;;;;;;5.07;1.40;;;;;;;;;;4980308;28;20034;-87
2022/08/03 08:16:29;;;;;;;1.23;1.10;;;;;;;;;;4986870;28;20077;-87
2022/08/03 08:18:54;;;;;;;1.20;1.00;;;;;;;;;;4978504;28;20038;-87
2022/08/03 08:21:20;;;;;;;1.42;1.08;;;;;;;;;;4982065;28;20309;-87
2022/08/03 08:23:45;;;;;;;2.50;1.15;;;;;;;;;;4979638;28;20042;-87
2022/08/03 08:26:11;;;;;;;4.93;1.13;;;;;;;;;;4977457;28;20035;-88
2022/08/03 08:28:37;;;;;;;2.38;1.00;;;;;;;;;;4978538;28;20507;-90
2022/08/03 08:31:02;;;;;;;1.20;1.10;;;;;;;;;;4981376;28;20439;-89
2022/08/03 08:33:28;;;;;;;1.13;1.02;;;;;;;;;;4981276;28;20085;-89
2022/08/03 08:35:53;;;;;;;1.48;1.10;;;;;;;;;;4979324;28;20070;-89
2022/08/03 08:38:20;;;;;;;1.10;1.00;;;;;;;;;;4980938;28;20043;-88
2022/08/03 08:40:46;;;;;;;1.38;1.05;;;;;;;;;;4980054;28;20058;-88
2022/08/03 08:43:11;;;;;;;1.83;0.90;;;;;;;;;;4979131;28;20035;-89
2022/08/03 08:45:37;;;;;;;1.58;1.05;;;;;;;;;;4978943;28;20041;-89
2022/08/03 08:48:05;;;;;;;2.88;1.08;;;;;;;;;;4980879;28;20411;-89
2022/08/03 08:50:30;;;;;;;1.50;1.10;;;;;;;;;;4978802;28;20074;-89
2022/08/03 08:53:00;;;;;;;1.55;1.00;;;;;;;;;;4980619;28;20046;-90
2022/08/03 08:55:26;;;;;;;1.52;0.93;;;;;;;;;;4979520;28;20054;-88
2022/08/03 08:58:04;;;;;;;1.90;1.20;;;;;;;;;;4980994;28;20031;-88
2022/08/03 09:00:30;;;;;;;1.77;1.00;;;;;;;;;;4980469;28;20043;-89
2022/08/03 09:02:56;;;;;;;0.95;0.90;;;;;;;;;;4980183;28;20031;-86
2022/08/03 09:05:21;;;;;;;4.35;1.00;;;;;;;;;;4980409;28;20042;-88
2022/08/03 09:07:48;;;;;;;2.15;1.10;;;;;;;;;;4981161;28;20042;-90
2022/08/03 09:10:18;;;;;;;1.58;0.90;;;;;;;;;;4978943;28;20034;-89
2022/08/03 09:12:50;;;;;;;1.15;1.00;;;;;;;;;;4980085;28;20048;-88
2022/08/03 09:15:15;;;;;;;1.85;1.10;;;;;;;;;;4977970;28;20523;-89
2022/08/03 09:17:41;;;;;;;1.42;1.00;;;;;;;;;;4982261;28;20070;-92
2022/08/03 09:20:08;;;;;;;1.80;1.00;;;;;;;;;;4982322;28;20030;-89
2022/08/03 09:22:34;;;;;;;2.53;1.10;;;;;;;;;;4984558;28;20042;-89
2022/08/03 09:25:03;;;;;;;1.58;1.10;;;;;;;;;;4982555;28;20041;-88
2022/08/03 09:27:41;;;;;;;1.02;0.93;;;;;;;;;;4967005;28;20061;-88
2022/08/03 09:30:13;;;;;;;4.95;1.10;;;;;;;;;;4984457;28;20081;-87
2022/08/03 09:32:38;;;;;;;1.92;1.10;;;;;;;;;;4984395;28;20462;-88
2022/08/03 09:35:05;;;;;;;3.45;1.25;;;;;;;;;;4984414;28;20537;-87
2022/08/03 09:37:30;;;;;;;1.50;1.20;;;;;;;;;;4984312;28;20035;-89
2022/08/03 09:39:56;;;;;;;5.35;1.10;;;;;;;;;;4984241;28;20174;-89
2022/08/03 09:42:22;;;;;;;5.03;1.45;;;;;;;;;;4983293;28;20093;-88
2022/08/03 09:44:50;;;;;;;3.30;1.17;;;;;;;;;;4983533;28;20046;-88
2022/08/03 09:47:33;;;;;;;2.67;1.10;;;;;;;;;;4965934;28;20070;-88
2022/08/03 09:50:01;;;;;;;2.28;1.20;;;;;;;;;;4983298;28;20459;-88
2022/08/03 09:52:46;;;;;;;1.58;1.23;;;;;;;;;;4983344;28;20034;-86
2022/08/03 09:55:13;;;;;;;4.43;1.13;;;;;;;;;;4983552;28;20038;-89
2022/08/03 09:57:40;;;;;;;3.38;1.13;;;;;;;;;;4985133;28;20038;-89
2022/08/03 10:00:10;;;;;;;3.08;1.17;;;;;;;;;;4982210;28;20062;-89
2022/08/03 10:02:41;;;;;;;3.53;1.35;;;;;;;;;;4981949;28;20027;-87
2022/08/03 10:05:08;;;;;;;2.20;1.20;;;;;;;;;;4983167;28;20023;-88
2022/08/03 10:07:49;;;;;;;2.42;1.40;;;;;;;;;;4982358;28;20043;-90
2022/08/03 10:10:16;;;;;;;4.05;1.30;;;;;;;;;;4980957;28;20039;-88
2022/08/03 10:12:43;;;;;;;4.28;1.30;;;;;;;;;;4982695;28;20026;-87
2022/08/03 10:15:09;;;;;;;2.63;1.20;;;;;;;;;;4983016;28;20119;-89
2022/08/03 10:17:36;;;;;;;3.63;1.35;;;;;;;;;;4984076;28;20045;-88
2022/08/03 10:20:03;;;;;;;4.75;1.23;;;;;;;;;;4984196;28;20061;-88
2022/08/03 10:22:32;;;;;;;3.63;1.40;;;;;;;;;;4983379;28;20031;-90
2022/08/03 10:25:01;;;;;;;1.92;1.30;;;;;;;;;;4982647;28;20503;-90
2022/08/03 10:27:32;;;;;;;1.67;1.20;;;;;;;;;;4983385;28;20035;-87
2022/08/03 10:30:02;;;;;;;3.70;1.17;;;;;;;;;;4983612;28;20045;-89
2022/08/03 10:32:32;;;;;;;3.83;1.30;;;;;;;;;;4984946;28;20035;-87
2022/08/03 10:35:10;;;;;;;1.98;1.13;;;;;;;;;;4983921;28;20038;-89
2022/08/03 10:37:41;;;;;;;1.40;1.10;;;;;;;;;;4984820;28;20034;-88
2022/08/03 10:40:11;;;;;;;1.35;1.10;;;;;;;;;;4984781;28;20066;-89
2022/08/03 10:42:37;;;;;;;1.52;1.10;;;;;;;;;;4984148;28;20046;-87
2022/08/03 10:45:04;;;;;;;1.27;1.10;;;;;;;;;;4981995;28;20027;-88
2022/08/03 10:47:31;;;;;;;2.67;0.93;;;;;;;;;;4966858;28;20450;-87
2022/08/03 10:49:57;;;;;;;1.75;1.10;;;;;;;;;;4982545;28;20511;-88
2022/08/03 10:52:22;;;;;;;2.58;1.00;;;;;;;;;;4983815;28;20066;-87
2022/08/03 10:57:54;;;;;;;1.70;0.98;;;;;;;;;;4984113;28;20042;-88
2022/08/03 11:00:21;;;;;;;1.77;1.15;;;;;;;;;;4984390;28;20531;-87
2022/08/03 11:03:15;;;;;;;1.13;0.93;;;;;;;;;;4984026;28;20035;-88
2022/08/03 11:05:45;;;;;;;1.20;1.00;;;;;;;;;;4964348;28;20038;-89
2022/08/03 11:08:23;;;;;;;1.70;1.10;;;;;;;;;;4980553;28;20089;-89
2022/08/03 11:10:50;;;;;;;1.25;0.90;;;;;;;;;;4980289;28;20038;-89
2022/08/03 11:13:18;;;;;;;1.75;0.90;;;;;;;;;;4983582;28;20034;-87
2022/08/03 11:15:46;;;;;;;2.60;1.00;;;;;;;;;;4979953;28;20030;-88
2022/08/03 11:18:13;;;;;;;1.92;0.93;;;;;;;;;;4981854;28;20058;-89
2022/08/03 11:20:44;;;;;;;1.92;1.05;;;;;;;;;;4982005;28;20035;-91
2022/08/03 11:23:11;;;;;;;2.83;1.10;;;;;;;;;;4982240;28;20058;-88
2022/08/03 11:26:07;;;;;;;1.70;1.10;;;;;;;;;;4964841;28;20027;-89
2022/08/03 11:28:33;;;;;;;1.55;1.17;;;;;;;;;;4983531;28;20031;-89
2022/08/03 11:31:41;;;;;;;1.77;1.00;;;;;;;;;;4979523;28;20515;-88
2022/08/03 11:34:08;;;;;;;1.10;0.90;;;;;;;;;;4982812;28;20034;-87
2022/08/03 11:37:11;;;;;;;1.65;1.00;;;;;;;;;;4982330;28;20121;-87
2022/08/03 11:39:45;;;;;;;1.83;1.00;;;;;;;;;;4981499;28;20041;-88
2022/08/03 11:42:23;;;;;;;2.00;0.95;;;;;;;;;;4980840;28;20039;-88
2022/08/03 11:44:50;;;;;;;1.67;1.10;;;;;;;;;;4982027;28;20140;-88
2022/08/03 11:47:16;;;;;;;3.50;1.10;;;;;;;;;;4982536;28;20033;-89
2022/08/03 11:49:50;;;;;;;1.48;0.90;;;;;;;;;;4983598;28;20065;-89
2022/08/03 11:52:18;;;;;;;1.05;0.90;;;;;;;;;;4980830;28;20047;-91
2022/08/03 11:54:44;;;;;;;2.83;1.00;;;;;;;;;;4981668;28;20058;-88
2022/08/03 11:57:09;;;;;;;2.88;1.00;;;;;;;;;;4983109;28;20031;-88
2022/08/03 11:59:36;;;;;;;1.30;1.00;;;;;;;;;;4982763;28;20041;-89
2022/08/03 12:02:20;;;;;;;1.15;1.00;;;;;;;;;;4981257;28;20102;-88
2022/08/03 12:05:01;;;;;;;1.35;1.00;;;;;;;;;;4979074;28;20495;-88
2022/08/03 12:07:29;;;;;;;2.08;1.00;;;;;;;;;;4980800;28;20054;-88
2022/08/03 12:10:13;;;;;;;1.50;1.00;;;;;;;;;;4979647;28;20043;-88
2022/08/03 12:12:41;;;;;;;1.20;1.00;;;;;;;;;;4980870;28;20062;-90
2022/08/03 12:15:07;;;;;;;1.33;1.00;;;;;;;;;;4980918;28;20037;-88
2022/08/03 12:17:34;;;;;;;1.30;1.00;;;;;;;;;;4964086;28;20026;-90
2022/08/03 12:20:01;;;;;;;1.08;0.98;;;;;;;;;;4981879;28;20121;-88
2022/08/03 12:22:39;;;;;;;3.05;1.10;;;;;;;;;;4981863;28;20042;-88
2022/08/03 12:25:06;;;;;;;2.13;1.00;;;;;;;;;;4981520;28;20058;-90
2022/08/03 12:27:32;;;;;;;2.20;1.00;;;;;;;;;;4982626;28;20033;-90
2022/08/03 12:30:00;;;;;;;1.52;0.95;;;;;;;;;;4979439;28;20031;-89
2022/08/03 12:32:27;;;;;;;3.17;1.10;;;;;;;;;;4978949;28;20098;-87
2022/08/03 12:34:54;;;;;;;2.60;1.20;;;;;;;;;;4982081;28;20047;-89
2022/08/03 12:37:22;;;;;;;4.03;1.10;;;;;;;;;;4982756;28;20054;-88
2022/08/03 12:39:55;;;;;;;1.42;1.10;;;;;;;;;;4982626;28;20034;-88
2022/08/03 12:42:21;;;;;;;1.52;0.90;;;;;;;;;;4983155;28;20066;-88
2022/08/03 12:44:49;;;;;;;1.73;1.20;;;;;;;;;;4965412;28;20027;-89
2022/08/03 12:47:15;;;;;;;2.22;1.10;;;;;;;;;;4982330;28;20031;-89
2022/08/03 12:49:45;;;;;;;2.20;1.00;;;;;;;;;;4979454;28;20034;-89
2022/08/03 12:52:11;;;;;;;3.13;1.00;;;;;;;;;;4984827;28;20039;-92
2022/08/03 12:54:36;;;;;;;2.00;1.10;;;;;;;;;;4982185;28;20041;-88
2022/08/03 12:57:05;;;;;;;2.00;1.10;;;;;;;;;;4984072;28;20037;-87
2022/08/03 12:59:41;;;;;;;1.20;1.08;;;;;;;;;;4983387;28;20031;-89
2022/08/03 13:02:17;;;;;;;1.20;1.10;;;;;;;;;;4985913;28;20065;-88
2022/08/03 13:04:45;;;;;;;2.15;1.13;;;;;;;;;;4985024;28;20038;-89
2022/08/03 13:07:12;;;;;;;2.58;0.95;;;;;;;;;;4983722;28;20039;-88
2022/08/03 13:09:46;;;;;;;1.48;1.02;;;;;;;;;;4983942;28;20035;-90
2022/08/03 13:12:20;;;;;;;1.65;1.10;;;;;;;;;;4984871;28;20094;-89
2022/08/03 13:14:56;;;;;;;2.85;1.02;;;;;;;;;;4983673;28;20066;-90
2022/08/03 13:17:22;;;;;;;3.25;1.20;;;;;;;;;;4984163;28;20022;-88
2022/08/03 13:19:47;;;;;;;1.65;1.00;;;;;;;;;;4982796;28;20054;-87
2022/08/03 13:22:24;;;;;;;1.30;1.05;;;;;;;;;;4980352;28;20061;-89
2022/08/03 13:24:55;;;;;;;2.75;1.10;;;;;;;;;;4983045;28;20030;-89
2022/08/03 13:27:20;;;;;;;2.50;1.20;;;;;;;;;;4982583;28;20026;-89
2022/08/03 13:29:46;;;;;;;4.15;1.15;;;;;;;;;;4986784;28;20114;-90
2022/08/03 13:32:11;;;;;;;3.22;1.00;;;;;;;;;;4982606;28;20148;-89
2022/08/03 13:34:38;;;;;;;3.45;1.05;;;;;;;;;;4964689;28;20039;-88
2022/08/03 13:37:03;;;;;;;4.38;1.20;;;;;;;;;;4983431;28;20121;-88
2022/08/03 13:39:29;;;;;;;3.47;1.10;;;;;;;;;;4982877;28;20065;-90
2022/08/03 13:41:54;;;;;;;1.27;1.00;;;;;;;;;;4966447;28;20463;-90
2022/08/03 13:44:20;;;;;;;1.10;1.00;;;;;;;;;;4984381;28;20033;-89
2022/08/03 13:46:46;;;;;;;2.20;1.10;;;;;;;;;;4989858;28;20054;-89
2022/08/03 13:49:12;;;;;;;1.65;1.10;;;;;;;;;;4982090;28;20118;-90
2022/08/03 13:51:38;;;;;;;4.60;1.10;;;;;;;;;;4981517;28;20049;-91
2022/08/03 13:54:03;;;;;;;3.17;1.10;;;;;;;;;;4982189;28;20093;-88
2022/08/03 13:56:30;;;;;;;3.95;1.13;;;;;;;;;;4983135;28;20046;-86
2022/08/03 13:58:56;;;;;;;2.03;1.13;;;;;;;;;;4983467;28;20415;-86
2022/08/03 14:01:22;;;;;;;2.33;1.10;;;;;;;;;;4980824;28;20102;-89
2022/08/03 14:03:51;;;;;;;1.10;1.00;;;;;;;;;;4983417;28;20042;-89
2022/08/03 14:06:17;;;;;;;4.57;1.08;;;;;;;;;;4964616;28;20051;-89
2022/08/03 14:08:43;;;;;;;1.13;1.05;;;;;;;;;;4981255;28;20042;-89
2022/08/03 14:11:10;;;;;;;2.80;1.10;;;;;;;;;;4982313;28;20098;-89
2022/08/03 14:13:36;;;;;;;2.63;1.00;;;;;;;;;;4981806;28;20054;-89
2022/08/03 14:16:01;;;;;;;2.65;1.40;;;;;;;;;;4981111;28;20468;-88
2022/08/03 14:18:27;;;;;;;1.98;1.05;;;;;;;;;;4981671;28;20038;-90
2022/08/03 14:20:52;;;;;;;3.00;1.33;;;;;;;;;;4964930;28;20062;-91
2022/08/03 14:23:18;;;;;;;1.73;1.10;;;;;;;;;;4981264;28;20046;-88
2022/08/03 14:25:44;;;;;;;2.47;1.10;;;;;;;;;;4981887;28;20039;-89
2022/08/03 14:28:10;;;;;;;3.30;1.10;;;;;;;;;;4982046;28;20038;-87
2022/08/03 14:30:36;;;;;;;1.80;1.00;;;;;;;;;;4982288;28;20035;-86
2022/08/03 14:33:02;;;;;;;1.15;0.93;;;;;;;;;;4982380;28;20098;-87
2022/08/03 14:35:28;;;;;;;1.00;0.95;;;;;;;;;;4982419;28;20117;-86
2022/08/03 14:37:53;;;;;;;1.23;0.95;;;;;;;;;;4980380;28;20070;-87
2022/08/03 14:40:20;;;;;;;1.75;1.13;;;;;;;;;;4964924;28;20042;-87
2022/08/03 14:42:45;;;;;;;3.05;0.98;;;;;;;;;;4982090;28;20043;-87
2022/08/03 14:45:12;;;;;;;1.55;1.10;;;;;;;;;;4981555;28;20081;-86
2022/08/03 14:47:40;;;;;;;1.42;1.00;;;;;;;;;;4981550;28;20030;-87
2022/08/03 14:50:06;;;;;;;1.20;1.10;;;;;;;;;;4982255;28;20046;-86
2022/08/03 14:52:32;;;;;;;1.25;1.10;;;;;;;;;;4964686;28;20039;-87
2022/08/03 14:54:58;;;;;;;1.10;1.00;;;;;;;;;;4981477;28;20049;-86
2022/08/03 14:57:24;;;;;;;2.08;1.08;;;;;;;;;;4980660;28;20104;-87
2022/08/03 14:59:50;;;;;;;1.60;1.20;;;;;;;;;;4982028;28;20055;-87
2022/08/03 15:02:15;;;;;;;2.58;1.40;;;;;;;;;;4981485;28;20034;-87